Accueil
METAR-TAF:

METAR-TAF

Aéroports :

Aéroport de Saint-Yan

Saint-Yan, France

latitude: 46-24-45N, longitude: 004-00-48E, altitude: 244 m

Observation

Le bulletin a été fait il y a 30 minutes, à 22:30 UTC
Vent 2 kt de sud/sud-est
Température 18°C
Humidité 88%
Pression 1019 hPa
Visibilité 10 km ou plus
pas de nuages en-dessous de 1500 mètres et pas de cumulonimbus.

METAR: LFLN 202230Z AUTO 15002KT CAVOK 18/16 Q1019

Heure: 01:00 (23:00 UTC)

Prévision

Le bulletin a été fait il y a 6 heures et 0 minutes, à 17:00 UTC
Prévision valable du 20 à 18 UTC au 21 à 03 UTC
Vent 4 kt de direction variable
Visibilité 10 km ou plus
pas de nuages en-dessous de 1500 mètres et pas de cumulonimbus.
Temporairement
du 21 à 02 UTC au 21 à 03 UTC
Visibilité: 0700 m
Nuages fragmentés à une hauteur de 300 ft
bancs de brouillard

TAF: LFLN 201700Z 2018/2103 VRB04KT CAVOK TEMPO 2102/2103 0700 BCFG BKN003

Observations et prévisions météorologiques de plus de 4000 aéroports (messages METAR et TAF).

Les stations disponibles sont représentées par des disques jaunes et rouges sur la carte.

Passer la souris dessus pour voir le nom de la station.

Cliquer dessus pour voir les observations et prévisions météorologiques.

Pour changer de carte: cliquez sur les boutons verts avec une croix noire pour zoomer, sur le bouton vert avec un tiret pour effectuer un zoom arrière, ou sur les flèches vertes pour les cartes adjacentes.


METAR-TAF: